East Bernstadt, Kentucky
Current Conditions -  °F | °C
As of 10:53 AM on Thursday 30 Oct 2014 (Local Time) from KLOZ Reporting Station
Clear Clear  
Wind Chill: 50°   Ceiling: Unl
Heat Index: 50°   Visibility: 10mi
Dew Point: 36°   Wind: 5mph
Humidity: 59%   Direction: NA
Pressure: 30.16"   Gusts: NA
Location:  37.19°N, 84.12°W
Report Text: KLOZ 301453Z AUTO VRB04KT 10SM CLR 10/02 A3016 RMK AO2 SLP212 T01000022 50007
Loading
Personal Weather Stations






























Interactive Weather Map
Tropical Storm Tracking
New forecast layout! Learn more

10-Day Weather Forecast

Advertisements
Track Severe Weather on mobile